Time;durP1;ratioP1;P1;durP2;ratioP2;P2;SDS_P1;SDS_P2;PMS_P1;PMS_P2;Temp;Humidity;BMP_temperature;BMP_pressure;BME280_temperature;BME280_humidity;BME280_pressure;Samples;Min_cycle;Max_cycle;Signal;HPM_P1;HPM_P2
2022/01/29 00:01:41;;;;;;;59.85;31.50;;;7.10;99.90;;;;;;5055657;28;20108;-72
2022/01/29 00:04:07;;;;;;;58.63;31.23;;;7.10;99.90;;;;;;5055905;28;20021;-72
2022/01/29 00:06:33;;;;;;;64.07;30.83;;;7.10;99.90;;;;;;5055886;28;20112;-72
2022/01/29 00:08:58;;;;;;;61.22;30.45;;;7.10;99.90;;;;;;5055927;28;20047;-72
2022/01/29 00:11:29;;;;;;;57.17;32.88;;;7.10;99.90;;;;;;5055706;28;20040;-72
2022/01/29 00:13:56;;;;;;;50.70;25.92;;;7.00;99.90;;;;;;5055695;28;20033;-72
2022/01/29 00:16:22;;;;;;;59.60;34.22;;;7.10;99.90;;;;;;5055561;28;20025;-72
2022/01/29 00:18:48;;;;;;;57.45;27.95;;;7.00;99.90;;;;;;5055513;28;20033;-72
2022/01/29 00:21:13;;;;;;;66.50;34.80;;;6.90;99.90;;;;;;5055709;28;20500;-72
2022/01/29 00:23:39;;;;;;;64.07;35.97;;;7.00;99.90;;;;;;5055651;28;20086;-71
2022/01/29 00:26:05;;;;;;;74.03;36.17;;;6.90;99.90;;;;;;5054287;28;20021;-72
2022/01/29 00:28:34;;;;;;;56.95;27.58;;;6.80;99.90;;;;;;5055494;28;20029;-72
2022/01/29 00:31:02;;;;;;;60.97;29.15;;;6.70;99.90;;;;;;5055306;28;20032;-72
2022/01/29 00:33:28;;;;;;;76.97;37.28;;;6.70;99.90;;;;;;5055228;28;20428;-72
2022/01/29 00:35:53;;;;;;;73.28;40.03;;;6.70;99.90;;;;;;5054011;28;20044;-72
2022/01/29 00:38:19;;;;;;;77.38;38.63;;;6.70;99.90;;;;;;5055325;28;20010;-72
2022/01/29 00:40:46;;;;;;;72.65;37.60;;;6.70;99.90;;;;;;5055225;28;20444;-71
2022/01/29 00:43:12;;;;;;;75.10;37.03;;;6.70;99.90;;;;;;5055288;28;20064;-71
2022/01/29 00:45:38;;;;;;;66.57;37.38;;;6.70;99.90;;;;;;5054781;28;20028;-72
2022/01/29 00:48:04;;;;;;;73.40;39.22;;;6.70;99.90;;;;;;5055226;28;20025;-71
2022/01/29 00:50:30;;;;;;;83.55;39.35;;;6.60;99.90;;;;;;5054889;28;20428;-72
2022/01/29 00:52:55;;;;;;;70.03;40.05;;;6.70;99.90;;;;;;5055177;28;20041;-71
2022/01/29 00:55:21;;;;;;;75.40;39.35;;;6.70;99.90;;;;;;5054879;28;20028;-72
2022/01/29 00:57:47;;;;;;;72.53;39.53;;;6.80;99.90;;;;;;5055143;28;20082;-72
2022/01/29 01:00:14;;;;;;;69.38;38.08;;;6.70;99.90;;;;;;5053246;28;20116;-71
2022/01/29 01:02:40;;;;;;;84.28;40.20;;;6.70;99.90;;;;;;5054705;28;20500;-72
2022/01/29 01:05:07;;;;;;;75.85;40.25;;;6.60;99.90;;;;;;5054854;28;20038;-72
2022/01/29 01:07:33;;;;;;;73.55;38.40;;;6.70;99.90;;;;;;5054913;28;20427;-72
2022/01/29 01:09:58;;;;;;;82.93;39.88;;;6.50;99.90;;;;;;5054538;28;20025;-72
2022/01/29 01:12:24;;;;;;;77.40;39.70;;;6.60;99.90;;;;;;5054738;28;20495;-72
2022/01/29 01:14:51;;;;;;;84.32;44.75;;;6.60;99.90;;;;;;5054296;28;20048;-72
2022/01/29 01:17:18;;;;;;;89.90;43.05;;;6.50;99.90;;;;;;5054740;28;20032;-72
2022/01/29 01:19:44;;;;;;;82.03;43.60;;;6.50;99.90;;;;;;5053203;28;20060;-72
2022/01/29 01:22:10;;;;;;;77.60;35.65;;;6.40;99.90;;;;;;5054490;28;20031;-73
2022/01/29 01:24:36;;;;;;;84.85;44.20;;;6.40;99.90;;;;;;5054466;28;20037;-72
2022/01/29 01:27:02;;;;;;;85.30;44.10;;;6.50;99.90;;;;;;5054024;28;20021;-72
2022/01/29 01:29:28;;;;;;;87.85;45.05;;;6.50;99.90;;;;;;5054317;28;20037;-74
2022/01/29 01:31:54;;;;;;;93.03;46.35;;;6.50;99.90;;;;;;5054176;28;20027;-72
2022/01/29 01:34:22;;;;;;;98.45;46.63;;;6.50;99.90;;;;;;5052048;28;20045;-72
2022/01/29 01:36:54;;;;;;;88.88;43.03;;;6.60;99.90;;;;;;5053290;28;20021;-73
2022/01/29 01:39:24;;;;;;;85.47;38.85;;;6.70;99.90;;;;;;5053430;28;20428;-74
2022/01/29 01:41:58;;;;;;;90.38;41.33;;;6.70;99.90;;;;;;5053025;28;20041;-75
2022/01/29 01:44:24;;;;;;;89.68;42.40;;;6.60;99.90;;;;;;5052943;28;20025;-73
2022/01/29 01:46:49;;;;;;;97.50;46.65;;;6.60;99.90;;;;;;5053122;28;20071;-73
2022/01/29 01:49:19;;;;;;;92.20;43.92;;;6.70;99.90;;;;;;5051858;28;20036;-73
2022/01/29 01:51:45;;;;;;;90.88;43.42;;;6.60;99.90;;;;;;5052972;28;20036;-74
2022/01/29 01:54:10;;;;;;;72.93;33.38;;;6.60;99.90;;;;;;5053080;28;20025;-73
2022/01/29 01:56:36;;;;;;;81.78;37.38;;;6.60;99.90;;;;;;5051831;28;20040;-73
2022/01/29 01:59:02;;;;;;;81.43;38.97;;;6.60;99.90;;;;;;5052766;28;20033;-73
2022/01/29 02:01:27;;;;;;;84.07;41.30;;;6.60;99.90;;;;;;5052724;28;20029;-72
2022/01/29 02:03:53;;;;;;;86.70;41.33;;;6.60;99.90;;;;;;5052823;28;20461;-73
2022/01/29 02:06:19;;;;;;;93.30;43.22;;;6.60;99.90;;;;;;5052757;28;20435;-74
2022/01/29 02:08:45;;;;;;;90.13;41.03;;;6.60;99.90;;;;;;5052803;28;20501;-72
2022/01/29 02:11:11;;;;;;;81.43;38.67;;;6.60;99.90;;;;;;5052289;28;20029;-74
2022/01/29 02:13:37;;;;;;;85.57;39.70;;;6.70;99.90;;;;;;5052741;28;20386;-75
2022/01/29 02:16:04;;;;;;;79.38;39.88;;;6.60;99.90;;;;;;5052596;28;20100;-73
2022/01/29 02:18:30;;;;;;;72.93;35.50;;;6.70;99.90;;;;;;5052628;28;20047;-74
2022/01/29 02:20:58;;;;;;;77.90;37.03;;;6.70;99.90;;;;;;5052525;28;20033;-74
2022/01/29 02:23:24;;;;;;;80.90;37.97;;;6.70;99.90;;;;;;5052561;28;20025;-73
2022/01/29 02:25:51;;;;;;;79.38;38.80;;;6.70;99.90;;;;;;5051116;28;20496;-75
2022/01/29 02:28:22;;;;;;;81.80;36.78;;;6.80;99.90;;;;;;5052256;28;20111;-73
2022/01/29 02:30:51;;;;;;;81.60;39.35;;;6.80;99.90;;;;;;5052598;28;20047;-74
2022/01/29 02:33:18;;;;;;;76.43;35.83;;;6.90;99.90;;;;;;5008082;28;1272486;-74
2022/01/29 02:35:49;;;;;;;77.00;35.13;;;6.90;99.90;;;;;;5053156;28;20086;-73
2022/01/29 02:38:16;;;;;;;65.03;30.17;;;7.00;99.90;;;;;;5053260;28;20032;-73
2022/01/29 02:40:50;;;;;;;60.10;30.25;;;7.00;99.90;;;;;;5052618;28;20409;-73
2022/01/29 02:43:26;;;;;;;72.45;35.00;;;7.00;99.90;;;;;;5052996;28;20478;-73
2022/01/29 02:45:53;;;;;;;60.38;28.35;;;7.00;99.90;;;;;;5051912;28;20041;-73
2022/01/29 02:48:23;;;;;;;67.45;33.13;;;7.00;99.90;;;;;;5052910;28;20078;-74
2022/01/29 02:50:50;;;;;;;67.25;31.05;;;7.00;99.90;;;;;;5051908;28;20032;-75
2022/01/29 02:53:16;;;;;;;64.30;31.25;;;7.00;99.90;;;;;;5052954;28;20131;-73
2022/01/29 02:55:42;;;;;;;56.90;29.65;;;7.10;99.90;;;;;;5052468;28;20095;-73
2022/01/29 02:58:08;;;;;;;58.33;30.13;;;7.10;99.90;;;;;;5052795;28;20029;-75
2022/01/29 03:00:35;;;;;;;47.95;25.15;;;7.20;99.90;;;;;;5052871;28;20033;-72
2022/01/29 03:03:01;;;;;;;55.28;31.27;;;7.10;99.90;;;;;;5053097;28;20090;-73
2022/01/29 03:05:27;;;;;;;58.00;29.50;;;7.10;99.90;;;;;;5052943;28;20029;-73
2022/01/29 03:07:52;;;;;;;63.90;29.63;;;7.20;99.90;;;;;;5052170;28;20025;-73
2022/01/29 03:10:19;;;;;;;59.60;30.20;;;7.20;99.90;;;;;;5051756;28;20035;-74
2022/01/29 03:12:45;;;;;;;65.40;31.02;;;7.20;99.90;;;;;;5052726;28;20021;-73
2022/01/29 03:15:12;;;;;;;58.53;28.80;;;7.20;99.90;;;;;;5052543;28;20537;-73
2022/01/29 03:17:38;;;;;;;62.63;29.65;;;7.30;99.90;;;;;;5052471;28;20058;-74
2022/01/29 03:20:04;;;;;;;59.80;30.63;;;7.30;99.90;;;;;;5051340;28;20033;-75
2022/01/29 03:22:30;;;;;;;64.03;29.80;;;7.30;99.90;;;;;;5052390;28;20040;-73
2022/01/29 03:24:56;;;;;;;62.00;29.13;;;7.40;99.90;;;;;;5052303;28;20108;-73
2022/01/29 03:27:21;;;;;;;68.25;31.75;;;7.40;99.90;;;;;;5051084;28;20033;-72
2022/01/29 03:29:47;;;;;;;57.67;28.00;;;7.40;99.90;;;;;;5052451;28;20446;-73
2022/01/29 03:32:13;;;;;;;60.53;28.90;;;7.40;99.90;;;;;;5052363;28;20384;-72
2022/01/29 03:34:38;;;;;;;58.67;30.65;;;7.50;99.90;;;;;;5052107;28;20044;-72
2022/01/29 03:37:04;;;;;;;69.65;31.08;;;7.50;99.90;;;;;;5052514;28;20053;-72
2022/01/29 03:39:33;;;;;;;54.13;27.17;;;7.50;99.90;;;;;;5048670;28;20069;-73
2022/01/29 03:42:03;;;;;;;58.00;29.80;;;7.60;99.90;;;;;;5037020;28;20037;-73
2022/01/29 03:44:29;;;;;;;48.63;26.55;;;7.50;99.90;;;;;;5050967;28;20040;-72
2022/01/29 03:46:55;;;;;;;59.35;27.92;;;7.60;99.90;;;;;;5052370;28;20025;-74
2022/01/29 03:49:20;;;;;;;55.58;26.95;;;7.70;99.90;;;;;;5052200;28;20370;-72
2022/01/29 03:51:46;;;;;;;46.05;26.17;;;7.70;99.90;;;;;;5052455;28;20033;-72
2022/01/29 03:54:12;;;;;;;55.78;27.70;;;7.70;99.90;;;;;;5051843;28;20033;-72
2022/01/29 03:56:38;;;;;;;52.80;23.50;;;7.70;99.90;;;;;;5052288;28;20037;-73
2022/01/29 03:59:04;;;;;;;37.05;18.08;;;7.80;99.90;;;;;;5052272;28;20036;-73
2022/01/29 04:01:29;;;;;;;46.90;25.52;;;7.80;99.90;;;;;;5052133;28;20142;-73
2022/01/29 04:03:55;;;;;;;47.08;23.77;;;7.80;99.90;;;;;;5051994;28;20029;-74
2022/01/29 04:06:21;;;;;;;47.00;25.00;;;7.70;99.90;;;;;;5052245;28;20460;-72
2022/01/29 04:08:47;;;;;;;42.00;22.50;;;7.80;99.90;;;;;;5051792;28;20017;-72
2022/01/29 04:11:14;;;;;;;46.28;24.23;;;7.80;99.90;;;;;;5052032;28;20052;-72
2022/01/29 04:13:43;;;;;;;39.60;22.92;;;7.80;99.90;;;;;;5050779;28;20033;-72
2022/01/29 04:16:10;;;;;;;41.65;24.45;;;7.90;99.90;;;;;;5052226;28;20107;-72
2022/01/29 04:18:36;;;;;;;42.92;23.92;;;7.90;99.90;;;;;;5051868;28;20477;-72
2022/01/29 04:21:04;;;;;;;46.42;24.73;;;8.00;99.90;;;;;;5054129;28;20029;-73
2022/01/29 04:23:29;;;;;;;38.47;23.83;;;8.00;99.90;;;;;;5055749;28;20025;-72
2022/01/29 04:25:55;;;;;;;35.75;22.17;;;8.00;99.90;;;;;;5055511;28;20384;-72
2022/01/29 04:28:25;;;;;;;41.13;21.40;;;8.00;99.90;;;;;;5055610;28;20041;-72
2022/01/29 04:30:57;;;;;;;31.58;18.33;;;8.10;99.90;;;;;;5055358;28;20028;-73
2022/01/29 04:35:48;;;;;;;35.45;22.20;;;8.00;99.90;;;;;;5055039;28;19913;-73
2022/01/29 04:38:15;;;;;;;36.83;21.70;;;8.10;99.90;;;;;;5055435;28;20366;-73
2022/01/29 04:40:40;;;;;;;36.42;21.70;;;8.10;99.90;;;;;;5055027;28;20123;-72
2022/01/29 04:43:06;;;;;;;35.90;20.42;;;8.20;99.90;;;;;;5055406;28;20163;-72
2022/01/29 04:45:32;;;;;;;33.65;19.48;;;8.10;99.90;;;;;;5055144;28;20437;-73
2022/01/29 04:47:58;;;;;;;33.00;21.58;;;8.10;99.90;;;;;;5055123;28;20025;-73
2022/01/29 04:50:24;;;;;;;34.00;20.35;;;8.20;99.90;;;;;;5054825;28;20400;-72
2022/01/29 04:52:50;;;;;;;32.63;20.73;;;8.20;99.90;;;;;;5055152;28;20033;-72
2022/01/29 04:55:15;;;;;;;33.30;18.08;;;8.20;99.90;;;;;;5054912;28;20044;-72
2022/01/29 04:57:41;;;;;;;33.10;19.67;;;8.20;99.90;;;;;;5055067;28;20028;-72
2022/01/29 05:00:19;;;;;;;31.33;19.88;;;8.20;99.90;;;;;;5054877;28;20044;-73
2022/01/29 05:02:51;;;;;;;33.15;20.58;;;8.30;99.90;;;;;;5054684;28;20089;-73
2022/01/29 05:05:17;;;;;;;32.03;17.02;;;8.30;99.90;;;;;;5054388;28;20033;-72
2022/01/29 05:07:43;;;;;;;31.88;20.08;;;8.30;99.90;;;;;;5054750;28;20053;-72
2022/01/29 05:10:10;;;;;;;27.10;18.30;;;8.30;99.90;;;;;;5054645;28;20041;-72
2022/01/29 05:15:20;;;;;;;30.90;17.58;;;8.30;99.90;;;;;;5053413;28;20045;-73
2022/01/29 05:28:44;;;;;;;27.15;18.33;;;8.40;99.90;;;;;;5053095;28;20044;-75
2022/01/29 05:31:10;;;;;;;26.75;17.30;;;8.40;99.90;;;;;;5053707;28;20515;-73
2022/01/29 05:33:36;;;;;;;27.35;18.60;;;8.40;99.90;;;;;;5053620;28;20033;-72
2022/01/29 05:36:01;;;;;;;24.73;16.75;;;8.40;99.90;;;;;;5054157;28;20075;-73
2022/01/29 05:38:27;;;;;;;27.60;17.38;;;8.40;99.90;;;;;;5054315;28;20385;-75
2022/01/29 05:40:56;;;;;;;28.73;17.92;;;8.50;99.90;;;;;;5054016;28;20382;-72
2022/01/29 05:43:22;;;;;;;25.55;16.60;;;8.40;99.90;;;;;;5054171;28;20024;-74
2022/01/29 05:45:48;;;;;;;26.90;18.30;;;8.50;99.90;;;;;;5052767;28;20558;-73
2022/01/29 05:48:14;;;;;;;26.63;18.40;;;8.50;99.90;;;;;;5053752;28;20092;-74
2022/01/29 05:50:40;;;;;;;29.20;19.00;;;8.50;99.90;;;;;;5053808;28;20025;-72
2022/01/29 05:53:06;;;;;;;24.58;16.38;;;8.50;99.90;;;;;;5053975;28;20384;-72
2022/01/29 05:55:32;;;;;;;25.92;18.00;;;8.50;99.90;;;;;;5053961;28;20032;-72
2022/01/29 05:57:57;;;;;;;25.38;16.65;;;8.60;99.90;;;;;;5053858;28;20033;-73
2022/01/29 06:00:24;;;;;;;25.70;17.23;;;8.60;99.90;;;;;;5053828;28;20511;-72
2022/01/29 06:03:03;;;;;;;28.45;18.50;;;8.60;99.90;;;;;;5053387;28;20107;-73
2022/01/29 06:05:29;;;;;;;27.38;16.48;;;8.60;99.90;;;;;;5053851;28;20037;-73
2022/01/29 06:07:55;;;;;;;27.13;17.63;;;8.60;99.90;;;;;;5053609;28;20033;-73
2022/01/29 06:10:22;;;;;;;27.98;17.05;;;8.60;99.90;;;;;;5053574;28;20025;-72
2022/01/29 06:13:02;;;;;;;24.58;14.25;;;8.80;99.90;;;;;;5053532;28;20036;-72
2022/01/29 06:15:28;;;;;;;24.65;17.70;;;8.70;99.90;;;;;;5053637;28;20033;-73
2022/01/29 06:17:56;;;;;;;24.73;16.55;;;8.70;99.90;;;;;;5051616;28;20131;-73
2022/01/29 06:20:22;;;;;;;22.95;16.02;;;8.70;99.90;;;;;;5053434;28;20033;-72
2022/01/29 06:22:48;;;;;;;19.33;13.32;;;8.70;99.90;;;;;;5053469;28;20033;-72
2022/01/29 06:25:14;;;;;;;27.38;15.75;;;8.60;99.90;;;;;;5053310;28;20031;-72
2022/01/29 06:27:39;;;;;;;28.13;17.17;;;8.60;99.90;;;;;;5053127;28;20424;-73
2022/01/29 06:30:06;;;;;;;20.83;14.27;;;8.60;99.90;;;;;;5053164;28;20040;-72
2022/01/29 06:32:32;;;;;;;21.55;14.65;;;8.60;99.90;;;;;;5052639;28;20036;-72
2022/01/29 06:34:57;;;;;;;22.98;16.05;;;8.70;99.90;;;;;;5053137;28;20108;-72
2022/01/29 06:37:23;;;;;;;19.92;14.75;;;8.80;99.90;;;;;;5051865;28;20449;-72
2022/01/29 06:39:49;;;;;;;20.98;14.30;;;8.80;99.90;;;;;;5051913;28;20045;-72
2022/01/29 06:42:15;;;;;;;20.23;13.48;;;8.70;99.90;;;;;;5052738;28;20078;-73
2022/01/29 06:44:40;;;;;;;19.98;14.07;;;8.60;99.90;;;;;;5052957;28;20037;-72
2022/01/29 06:47:06;;;;;;;21.25;14.10;;;8.70;99.90;;;;;;5052709;28;20025;-73
2022/01/29 06:49:32;;;;;;;23.58;14.70;;;8.70;99.90;;;;;;5052946;28;20043;-72
2022/01/29 06:51:58;;;;;;;18.73;13.90;;;8.80;99.90;;;;;;5052851;28;20040;-72
2022/01/29 06:54:23;;;;;;;23.48;13.57;;;8.70;99.90;;;;;;5052916;28;20029;-73
2022/01/29 06:56:49;;;;;;;22.55;14.38;;;8.70;99.90;;;;;;5052958;28;20124;-72
2022/01/29 06:59:15;;;;;;;20.73;14.43;;;8.70;99.90;;;;;;5052663;28;20094;-72
2022/01/29 07:01:40;;;;;;;19.40;14.73;;;8.70;99.90;;;;;;5052429;28;20393;-72
2022/01/29 07:04:06;;;;;;;21.67;14.10;;;8.80;99.90;;;;;;5052623;28;20099;-72
2022/01/29 07:06:32;;;;;;;18.38;14.52;;;8.80;99.90;;;;;;5051544;28;20036;-72
2022/01/29 07:08:58;;;;;;;19.85;13.10;;;8.80;99.90;;;;;;5052705;28;20082;-72
2022/01/29 07:11:25;;;;;;;18.23;13.20;;;8.90;99.90;;;;;;5051331;28;20104;-72
2022/01/29 07:14:17;;;;;;;19.83;12.60;;;8.90;99.90;;;;;;5052564;28;20033;-73
2022/01/29 07:16:37;;;;;;;25.25;13.77;;;9.00;99.90;;;;;;5052133;28;20045;-72
2022/01/29 07:19:03;;;;;;;25.08;13.80;;;8.90;99.90;;;;;;5052300;28;20028;-72
2022/01/29 07:21:29;;;;;;;20.95;12.43;;;8.90;99.90;;;;;;5052775;28;20025;-73
2022/01/29 07:23:56;;;;;;;18.35;11.27;;;9.00;99.90;;;;;;5052378;28;20037;-72
2022/01/29 07:26:21;;;;;;;18.65;12.18;;;9.10;99.90;;;;;;5052426;28;20025;-72
2022/01/29 07:28:47;;;;;;;17.23;13.05;;;9.10;99.90;;;;;;5052603;28;20039;-73
2022/01/29 07:31:13;;;;;;;15.73;11.10;;;9.10;99.90;;;;;;5052246;28;20380;-73
2022/01/29 07:33:39;;;;;;;21.85;12.43;;;9.10;99.90;;;;;;5052326;28;20036;-72
2022/01/29 07:36:05;;;;;;;17.73;11.98;;;9.10;99.90;;;;;;5052388;28;20025;-73
2022/01/29 07:38:31;;;;;;;22.88;12.73;;;9.10;99.90;;;;;;5052317;28;20112;-72
2022/01/29 07:40:56;;;;;;;21.67;13.35;;;9.10;99.90;;;;;;5051224;28;20116;-72
2022/01/29 07:43:22;;;;;;;22.60;12.35;;;9.20;99.90;;;;;;5052159;28;20128;-71
2022/01/29 07:45:48;;;;;;;16.33;12.32;;;9.10;99.90;;;;;;5052224;28;20537;-72
2022/01/29 07:48:14;;;;;;;18.52;12.55;;;9.20;99.90;;;;;;5052069;28;20053;-72
2022/01/29 07:50:40;;;;;;;26.15;13.18;;;9.20;99.90;;;;;;5051237;28;20039;-72
2022/01/29 07:53:06;;;;;;;24.77;13.98;;;9.20;99.90;;;;;;5045688;28;20021;-72
2022/01/29 07:55:32;;;;;;;17.92;13.63;;;9.20;99.90;;;;;;5048533;28;20037;-72
2022/01/29 07:57:59;;;;;;;21.50;12.68;;;9.20;99.90;;;;;;5044279;28;20070;-72
2022/01/29 08:00:25;;;;;;;25.67;13.13;;;9.30;99.90;;;;;;5055556;28;20234;-72
2022/01/29 08:02:51;;;;;;;16.83;11.68;;;9.30;99.90;;;;;;5056109;28;20376;-72
2022/01/29 08:05:17;;;;;;;17.13;12.30;;;9.20;99.90;;;;;;5054553;28;20076;-71
2022/01/29 08:07:42;;;;;;;31.85;14.07;;;9.30;99.90;;;;;;5055829;28;20029;-72
2022/01/29 08:10:08;;;;;;;28.17;13.40;;;9.30;99.90;;;;;;5055313;28;20115;-72
2022/01/29 08:12:34;;;;;;;22.55;13.77;;;9.30;99.90;;;;;;5055743;28;20025;-72
2022/01/29 08:15:01;;;;;;;20.20;13.10;;;9.30;99.90;;;;;;5055431;28;20171;-72
2022/01/29 08:17:27;;;;;;;24.30;13.43;;;9.30;99.90;;;;;;5055604;28;20036;-71
2022/01/29 08:19:53;;;;;;;21.92;13.30;;;9.40;99.90;;;;;;5055412;28;20037;-72
2022/01/29 08:22:19;;;;;;;22.40;12.80;;;9.40;99.90;;;;;;5055252;28;20464;-72
2022/01/29 08:24:45;;;;;;;20.85;12.60;;;9.40;99.90;;;;;;5055212;28;20388;-73
2022/01/29 08:27:11;;;;;;;20.73;12.20;;;9.40;99.90;;;;;;5055329;28;20384;-72
2022/01/29 08:29:36;;;;;;;21.38;12.88;;;9.40;99.90;;;;;;5055019;28;20104;-71
2022/01/29 08:32:03;;;;;;;19.52;11.30;;;9.40;99.90;;;;;;5055263;28;20029;-72
2022/01/29 08:34:29;;;;;;;14.88;10.10;;;9.40;99.90;;;;;;5055268;28;20116;-72
2022/01/29 08:37:00;;;;;;;22.85;12.15;;;9.40;99.90;;;;;;5055318;28;20111;-71
2022/01/29 08:39:26;;;;;;;15.43;10.80;;;9.40;99.90;;;;;;5054601;28;20049;-71
2022/01/29 08:41:53;;;;;;;19.13;12.25;;;9.50;99.90;;;;;;5053852;28;20075;-72
2022/01/29 08:44:19;;;;;;;22.90;11.88;;;9.50;99.90;;;;;;5054796;28;20112;-72
2022/01/29 08:46:45;;;;;;;19.83;11.90;;;9.50;99.90;;;;;;5055143;28;20104;-71
2022/01/29 08:49:10;;;;;;;17.52;11.55;;;9.50;99.90;;;;;;5055122;28;20025;-71
2022/01/29 08:51:36;;;;;;;14.93;8.68;;;9.50;99.90;;;;;;5054591;28;20514;-72
2022/01/29 08:54:02;;;;;;;19.98;11.32;;;9.60;99.90;;;;;;5054975;28;20025;-71
2022/01/29 08:56:28;;;;;;;19.77;12.43;;;9.60;99.90;;;;;;5054866;28;20029;-72
2022/01/29 08:58:54;;;;;;;19.02;11.88;;;9.60;99.90;;;;;;5054611;28;20469;-72
2022/01/29 09:01:19;;;;;;;25.20;14.25;;;9.60;99.90;;;;;;5051471;28;20072;-72
2022/01/29 09:03:45;;;;;;;19.02;11.70;;;9.60;99.90;;;;;;5053926;28;20036;-72
2022/01/29 09:06:11;;;;;;;20.15;13.27;;;9.60;99.90;;;;;;5054175;28;20091;-71
2022/01/29 09:08:39;;;;;;;27.83;14.30;;;9.60;99.90;;;;;;5054327;28;20104;-71
2022/01/29 09:11:05;;;;;;;20.70;11.82;;;9.70;99.90;;;;;;5054216;28;20021;-72
2022/01/29 09:13:31;;;;;;;18.52;10.88;;;9.70;99.90;;;;;;5053668;28;20473;-71
2022/01/29 09:15:57;;;;;;;18.10;12.43;;;9.70;99.90;;;;;;5044578;28;20028;-72
2022/01/29 09:18:24;;;;;;;19.83;11.75;;;9.80;99.90;;;;;;5053658;28;20051;-71
2022/01/29 09:20:50;;;;;;;13.73;11.18;;;9.80;99.90;;;;;;5050319;28;20082;-71
2022/01/29 09:23:16;;;;;;;21.50;12.43;;;9.90;99.90;;;;;;5047356;28;20025;-71
2022/01/29 09:25:42;;;;;;;17.75;11.32;;;9.90;99.90;;;;;;5059144;28;20020;-72
2022/01/29 09:28:09;;;;;;;18.63;9.77;;;9.90;99.90;;;;;;5034732;28;20045;-72
2022/01/29 09:30:35;;;;;;;12.57;9.65;;;9.90;99.90;;;;;;5034225;28;20469;-71
2022/01/29 09:33:01;;;;;;;14.98;8.27;;;9.90;99.90;;;;;;5037942;28;20033;-72
2022/01/29 09:35:28;;;;;;;11.85;8.30;;;10.00;99.90;;;;;;5053060;28;20396;-71
2022/01/29 09:37:54;;;;;;;15.27;10.77;;;10.00;99.90;;;;;;5035971;28;20028;-71
2022/01/29 09:40:20;;;;;;;15.20;8.48;;;10.00;99.90;;;;;;5053874;28;20459;-72
2022/01/29 09:42:49;;;;;;;17.60;8.73;;;10.00;99.90;;;;;;5053508;28;20436;-72
2022/01/29 09:45:16;;;;;;;14.05;9.57;;;10.00;99.90;;;;;;5054040;28;20074;-71
2022/01/29 09:47:44;;;;;;;15.68;9.18;;;10.10;99.90;;;;;;5053782;28;20029;-72
2022/01/29 09:50:11;;;;;;;14.05;8.48;;;10.10;99.90;;;;;;5052140;28;20056;-72
2022/01/29 09:52:38;;;;;;;12.38;7.15;;;10.20;99.90;;;;;;5052403;28;20033;-72
2022/01/29 09:55:05;;;;;;;13.05;7.78;;;10.20;99.90;;;;;;5053169;28;20032;-71
2022/01/29 09:57:30;;;;;;;14.40;8.48;;;10.20;99.90;;;;;;5045719;28;20027;-72
2022/01/29 09:59:56;;;;;;;15.10;6.45;;;10.30;99.90;;;;;;5052333;28;20132;-72
2022/01/29 10:02:23;;;;;;;12.20;7.10;;;10.30;99.90;;;;;;5046431;28;20464;-71
2022/01/29 10:04:57;;;;;;;12.60;6.50;;;10.30;99.90;;;;;;5045446;28;20340;-71
2022/01/29 10:07:28;;;;;;;13.18;6.55;;;10.40;99.90;;;;;;5051951;28;20059;-72
2022/01/29 10:09:56;;;;;;;12.05;5.90;;;10.40;99.90;;;;;;5052203;28;20032;-72
2022/01/29 10:12:24;;;;;;;10.95;5.95;;;10.40;99.90;;;;;;5052098;28;20098;-72
2022/01/29 10:14:55;;;;;;;12.15;5.60;;;10.50;99.90;;;;;;5052099;28;20064;-72
2022/01/29 10:17:39;;;;;;;10.40;5.35;;;10.50;99.90;;;;;;5051478;28;20330;-71
2022/01/29 10:20:28;;;;;;;14.82;5.15;;;10.50;99.90;;;;;;5050606;28;20048;-72
2022/01/29 10:23:00;;;;;;;9.00;4.88;;;10.50;99.90;;;;;;5034708;28;20045;-72
2022/01/29 10:25:27;;;;;;;;;;;10.60;99.90;;;;;;5033086;28;20473;-71
2022/01/29 10:28:12;;;;;;;11.35;4.63;;;10.60;99.90;;;;;;5050960;28;19905;-71
2022/01/29 10:30:50;;;;;;;10.68;3.90;;;10.60;99.90;;;;;;5052503;28;20033;-72
2022/01/29 10:33:29;;;;;;;10.65;5.72;;;10.60;99.90;;;;;;5052807;28;20094;-71
2022/01/29 10:36:07;;;;;;;7.55;4.28;;;10.60;99.90;;;;;;5052883;28;20044;-72
2022/01/29 10:38:41;;;;;;;8.00;3.75;;;10.70;99.90;;;;;;5052994;28;20069;-72
2022/01/29 10:41:23;;;;;;;10.60;4.10;;;10.70;99.90;;;;;;5050612;28;20051;-71
2022/01/29 10:46:38;;;;;;;12.45;4.22;;;10.70;99.90;;;;;;5052305;28;20393;-71
2022/01/29 10:49:05;;;;;;;9.98;4.38;;;10.70;99.90;;;;;;5051960;28;20033;-71
2022/01/29 10:51:33;;;;;;;6.22;3.65;;;10.70;99.90;;;;;;5051000;28;20029;-71
2022/01/29 10:54:19;;;;;;;7.55;3.85;;;10.70;99.90;;;;;;5032899;28;20392;-71
2022/01/29 10:57:09;;;;;;;11.52;6.03;;;10.80;99.90;;;;;;5041602;28;20147;-71
2022/01/29 10:59:38;;;;;;;7.28;3.60;;;10.80;99.90;;;;;;5051260;28;20040;-71
2022/01/29 11:02:07;;;;;;;9.98;5.10;;;10.90;99.90;;;;;;5052642;28;20021;-72
2022/01/29 11:04:36;;;;;;;9.32;3.20;;;11.00;99.90;;;;;;5054483;28;20040;-72
2022/01/29 11:07:06;;;;;;;6.55;3.55;;;11.00;99.90;;;;;;5072411;28;20028;-72
2022/01/29 11:09:32;;;;;;;6.85;2.80;;;10.90;99.90;;;;;;5068436;28;20476;-71
2022/01/29 11:12:01;;;;;;;6.93;3.33;;;11.00;99.90;;;;;;5052291;28;20030;-73
2022/01/29 11:14:28;;;;;;;14.68;6.97;;;11.00;99.90;;;;;;5052389;28;20389;-71
2022/01/29 11:16:54;;;;;;;6.18;2.92;;;11.00;99.90;;;;;;5052053;28;20021;-72
2022/01/29 11:19:21;;;;;;;7.88;3.30;;;11.00;99.90;;;;;;5050694;28;20037;-72
2022/01/29 11:21:52;;;;;;;7.28;2.80;;;11.00;99.90;;;;;;5051887;28;20021;-71
2022/01/29 11:24:19;;;;;;;11.10;4.68;;;11.00;99.90;;;;;;5052021;28;20117;-72
2022/01/29 11:26:45;;;;;;;7.93;3.30;;;11.00;99.90;;;;;;5052089;28;20037;-72
2022/01/29 11:29:24;;;;;;;8.77;3.20;;;11.20;99.90;;;;;;5052235;28;20056;-72
2022/01/29 11:32:21;;;;;;;7.28;2.75;;;11.20;99.90;;;;;;5055118;28;20025;-72
2022/01/29 11:35:00;;;;;;;10.45;3.75;;;11.20;99.90;;;;;;5055337;28;20127;-71
2022/01/29 11:37:49;;;;;;;14.52;5.80;;;11.30;99.90;;;;;;5047563;28;20102;-72
2022/01/29 11:40:28;;;;;;;9.18;2.97;;;11.30;99.90;;;;;;5055297;28;20037;-73
2022/01/29 11:42:57;;;;;;;9.55;4.03;;;11.30;99.90;;;;;;5055520;28;20040;-73
2022/01/29 11:45:45;;;;;;;7.75;2.72;;;11.30;99.90;;;;;;5055163;28;20234;-73
2022/01/29 11:48:27;;;;;;;4.57;3.13;;;11.30;99.90;;;;;;5053655;28;20669;-72
2022/01/29 11:51:02;;;;;;;8.32;3.53;;;11.40;99.90;;;;;;5055842;28;20029;-72
2022/01/29 11:53:46;;;;;;;5.57;3.00;;;11.50;99.90;;;;;;5039591;28;20034;-72
2022/01/29 11:56:32;;;;;;;18.75;7.90;;;11.50;99.90;;;;;;5036383;28;20087;-72
2022/01/29 11:59:17;;;;;;;7.75;4.22;;;11.60;99.90;;;;;;5035854;28;20389;-72
2022/01/29 12:01:43;;;;;;;7.63;2.25;;;11.60;99.90;;;;;;5035997;28;20033;-72
2022/01/29 12:04:09;;;;;;;14.27;7.28;;;11.40;99.90;;;;;;5051288;28;20026;-72
2022/01/29 12:06:40;;;;;;;9.98;4.72;;;11.50;99.90;;;;;;5035811;28;20462;-72
2022/01/29 12:09:21;;;;;;;7.15;4.20;;;11.60;99.90;;;;;;5035979;28;20029;-71
2022/01/29 12:12:14;;;;;;;6.13;2.88;;;11.50;99.90;;;;;;5055874;28;20447;-72
2022/01/29 12:14:41;;;;;;;7.68;3.30;;;11.60;99.90;;;;;;5055724;28;20052;-72
2022/01/29 12:17:08;;;;;;;5.53;2.35;;;11.60;99.90;;;;;;5055981;28;20025;-72
2022/01/29 12:19:37;;;;;;;4.18;2.30;;;11.80;99.90;;;;;;5054649;28;20392;-72
2022/01/29 12:22:12;;;;;;;5.80;2.53;;;11.90;99.90;;;;;;5054843;28;20477;-72
2022/01/29 12:24:48;;;;;;;5.20;2.50;;;11.90;99.90;;;;;;5055603;28;20116;-73
2022/01/29 12:27:14;;;;;;;8.57;2.60;;;11.80;99.90;;;;;;5055447;28;20118;-73
2022/01/29 12:29:40;;;;;;;6.38;3.63;;;11.90;99.90;;;;;;5054256;28;20052;-71
2022/01/29 12:32:08;;;;;;;8.75;3.35;;;11.90;99.90;;;;;;5055499;28;20025;-73
2022/01/29 12:34:33;;;;;;;4.93;2.80;;;12.30;99.90;;;;;;5055154;28;20043;-72
2022/01/29 12:37:15;;;;;;;3.83;1.65;;;13.00;99.90;;;;;;5055489;28;20063;-72
2022/01/29 12:39:43;;;;;;;8.23;2.22;;;12.40;99.90;;;;;;5047456;28;20060;-73
2022/01/29 12:45:00;;;;;;;7.13;2.15;;;12.80;99.90;;;;;;5065991;28;20033;-74
2022/01/29 12:47:29;;;;;;;2.92;1.83;;;12.50;99.90;;;;;;5063102;28;20487;-72
2022/01/29 12:49:56;;;;;;;4.35;1.60;;;12.70;99.90;;;;;;5045399;28;20481;-72
2022/01/29 12:52:22;;;;;;;7.05;2.13;;;13.20;99.90;;;;;;5060185;28;20067;-72
2022/01/29 12:55:00;;;;;;;11.07;3.10;;;13.80;99.90;;;;;;5075121;28;20066;-73
2022/01/29 12:57:41;;;;;;;4.05;1.67;;;14.00;99.90;;;;;;5074967;28;20078;-72
2022/01/29 13:00:09;;;;;;;2.58;1.48;;;13.80;99.90;;;;;;5074784;28;20115;-72
2022/01/29 13:02:35;;;;;;;7.03;1.83;;;13.80;99.90;;;;;;5074747;28;20094;-74
2022/01/29 13:05:02;;;;;;;8.00;1.30;;;14.20;99.90;;;;;;5074631;28;20040;-73